首页
METAR-TAF:

METAR-TAF

机场 :

Tri-County Regional Airport

Lone Rock, 威斯康辛州, 美国

纬度: 43-12-43N, 经度: 090-10-53W, 海拔: 219米

当前天气观测

该预报发布于50分钟前的19:56 UTC
静风
温度 3°C
湿度 75%
气压 1011 hPa
能見度: 8.0公里
少量云层高于1700英尺
阴天层高于4600英尺

METAR: KLNR 171956Z AUTO 00000KT 5SM HZ FEW017 OVC046 03/M01 A2986 RMK AO2 SLP114 T00281011

时间: 14:46 (20:46 UTC)


TAF: 丢失

超过4000个机场的气象观测和天气预报(METAR&TAF报告)。

可查询的气象台以黄色和红色小点在地图上表示。

将鼠标移到小点上方,可查看气象台名称。

然后点击查看天气观测和预报。

如需切换地图:点击带黑十字的绿色按钮放大地图;点击带横线的绿色按钮缩小地图;或者点击绿色箭头查看邻近地区的地图。


METAR-TAF: